Blues — ZGAQ9 — position and weather

sailwx.info

Track history (hours):
 
Tides and Currents Weather Stations Pressure Air Temp Water Temp Dewpoint Dewpoint Depression Visibility Wind Speed Wind Dir Waves Ship Positions

Blues

Last reported at 2018-Apr-25 15:42 UTC. Time now 2018-Apr-25 20:20 UTC.
Position N 39°34' E 002°38'.

Type: Sailing vessel. MMSI: 319031700.

Date/timePositionNaut miles runAvg speedWind from/ knotsBaromVisibWave heightAir tempDewpointWater temp
2018-Apr-25 15:42N 39°34' E 002°38'0 0.1
2018-Apr-25 15:30N 39°34' E 002°38'0 0.0
2018-Apr-25 15:00N 39°34' E 002°38'0 0.0
2018-Apr-25 14:30N 39°34' E 002°38'0 0.0
2018-Apr-25 14:00N 39°34' E 002°38'0 0.0
2018-Apr-25 13:30N 39°34' E 002°38'0 0.0
2018-Apr-25 13:01N 39°34' E 002°38'0 0.0
2018-Apr-25 12:30N 39°34' E 002°38'0 0.0
2018-Apr-25 12:01N 39°34' E 002°38'0 0.0
2018-Apr-25 11:30N 39°34' E 002°38'0 0.0
2018-Apr-25 11:00N 39°34' E 002°38'0 0.3
2018-Apr-25 10:30N 39°34' E 002°38'1 1.0
2018-Apr-25 09:58N 39°34' E 002°38'0 0.0
2018-Apr-25 09:28N 39°34' E 002°38'0 0.0
2018-Apr-25 08:58N 39°34' E 002°38'0 0.0
2018-Apr-25 08:28N 39°34' E 002°38'0 0.0
2018-Apr-23 07:32N 39°34' E 002°38'0 0.1
2018-Apr-23 07:29N 39°34' E 002°38'0 0.0
2018-Apr-23 06:59N 39°34' E 002°38'0 0.0
2018-Apr-23 06:29N 39°34' E 002°38'2 4.4
2018-Apr-23 06:00N 39°32' E 002°39'5 9.6
2018-Apr-23 05:30N 39°27' E 002°41'4 8.2
2018-Apr-23 05:00N 39°24' E 002°44'2910.8
2018-Apr-23 02:19N 38°59' E 003°03'7 0.2
2018-Apr-21 12:33N 39°01' E 002°54'2 9.8
2018-Apr-21 12:21N 39°03' E 002°53'4 9.9
2018-Apr-21 12:00N 39°06' E 002°51'5 9.9
2018-Apr-21 11:30N 39°10' E 002°47'710.0
2018-Apr-21 10:48N 39°17' E 002°44'3 9.2
2018-Apr-21 10:30N 39°19' E 002°43'4 8.8
2018-Apr-21 10:00N 39°24' E 002°42'4 8.8
2018-Apr-21 09:30N 39°28' E 002°41'2 4.4
2018-Apr-21 08:58N 39°30' E 002°40'1 3.1
2018-Apr-21 08:30N 39°31' E 002°40'3 5.1
2018-Apr-21 07:58N 39°34' E 002°38'0 0.0
2018-Apr-21 07:28N 39°34' E 002°38'0 0.0
2018-Apr-21 06:58N 39°34' E 002°38'0 0.0
2018-Apr-21 06:28N 39°34' E 002°38'0 0.0
2018-Apr-21 05:58N 39°34' E 002°38'0 0.0
2018-Apr-21 05:28N 39°34' E 002°38'0 0.0
2018-Apr-21 04:58N 39°34' E 002°38'0 0.0
2018-Apr-21 04:28N 39°34' E 002°38'0 0.0
2018-Apr-21 03:58N 39°34' E 002°38'0 0.0
2018-Apr-21 03:28N 39°34' E 002°38'0 0.0
2018-Apr-21 02:58N 39°34' E 002°38'0 0.0
2018-Apr-21 02:28N 39°34' E 002°38'0 0.0
2018-Apr-21 01:58N 39°34' E 002°38'0 0.0
2018-Apr-21 01:29N 39°34' E 002°38'0 0.0
2018-Apr-21 00:58N 39°34' E 002°38'0 0.0
2018-Apr-21 00:29N 39°34' E 002°38'0 0.0
2018-Apr-20 23:59N 39°34' E 002°38'0 0.0
2018-Apr-20 23:28N 39°34' E 002°38'0 0.0
2018-Apr-20 22:58N 39°34' E 002°38'0 0.0
2018-Apr-20 22:28N 39°34' E 002°38'0 0.0
2018-Apr-20 21:58N 39°34' E 002°38'0 0.0
2018-Apr-20 21:28N 39°34' E 002°38'0 0.0
2018-Apr-20 20:58N 39°34' E 002°38'0 0.0
2018-Apr-20 20:28N 39°34' E 002°38'0 0.0
2018-Apr-20 19:58N 39°34' E 002°38'0 0.0
2018-Apr-20 19:28N 39°34' E 002°38'0 0.0
2018-Apr-20 18:58N 39°34' E 002°38'0 0.0
2018-Apr-20 18:28N 39°34' E 002°38'0 0.0
2018-Apr-20 17:58N 39°34' E 002°38'0 0.0
2018-Apr-20 17:28N 39°34' E 002°38'0 0.0
2018-Apr-20 16:58N 39°34' E 002°38'0 0.0
2018-Apr-20 16:28N 39°34' E 002°38'0 0.0
2018-Apr-20 15:58N 39°34' E 002°38'0 0.0
2018-Apr-20 15:28N 39°34' E 002°38'0 0.0
2018-Apr-20 14:58N 39°34' E 002°38'0 0.0
2018-Apr-20 14:28N 39°34' E 002°38'0 0.0
2018-Apr-20 13:58N 39°34' E 002°38'0 0.0
2018-Apr-20 13:28N 39°34' E 002°38'0 0.0
2018-Apr-20 12:59N 39°34' E 002°38'0 0.0
2018-Apr-20 12:28N 39°34' E 002°38'0 0.0
2018-Apr-20 11:58N 39°34' E 002°38'0 0.0
2018-Apr-20 11:28N 39°34' E 002°38'0 0.0
2018-Apr-20 10:58N 39°34' E 002°38'0 0.0
2018-Apr-20 10:28N 39°34' E 002°38'0 0.0
2018-Apr-20 09:58N 39°34' E 002°38'0 0.0
2018-Apr-20 09:29N 39°34' E 002°38'0 0.0
2018-Apr-20 08:58N 39°34' E 002°38'0 0.0
2018-Apr-20 08:28N 39°34' E 002°38'0 0.0
2018-Apr-20 07:58N 39°34' E 002°38'0 0.0
2018-Apr-20 07:29N 39°34' E 002°38'0 0.0
2018-Apr-20 06:58N 39°34' E 002°38'0 0.1
2018-Apr-20 06:28N 39°34' E 002°38'0 0.0
2018-Apr-20 05:58N 39°34' E 002°38'0 0.0
2018-Apr-20 05:28N 39°34' E 002°38'0 0.0
2018-Apr-20 04:58N 39°34' E 002°38'0 0.0
2018-Apr-20 04:28N 39°34' E 002°38'0 0.0
2018-Apr-20 03:58N 39°34' E 002°38'0 0.0
2018-Apr-20 03:28N 39°34' E 002°38'0 0.0
2018-Apr-20 02:58N 39°34' E 002°38'0 0.0
2018-Apr-20 02:28N 39°34' E 002°38'0 0.0
2018-Apr-20 01:58N 39°34' E 002°38'0 0.0
2018-Apr-20 01:29N 39°34' E 002°38'0 0.0
2018-Apr-20 00:58N 39°34' E 002°38'0 0.0
2018-Apr-20 00:28N 39°34' E 002°38'0 0.0
2018-Apr-19 23:46N 39°34' E 002°38'0 0.0
2018-Apr-19 23:29N 39°34' E 002°38'0 0.0
2018-Apr-19 22:58N 39°34' E 002°38'0 0.0
2018-Apr-19 22:28N 39°34' E 002°38'0 0.0
2018-Apr-19 21:58N 39°34' E 002°38'0 0.0
2018-Apr-19 21:28N 39°34' E 002°38'0 0.0
2018-Apr-19 20:58N 39°34' E 002°38'0 0.0
2018-Apr-19 20:28N 39°34' E 002°38'0 0.0
2018-Apr-19 19:58N 39°34' E 002°38'0 0.0
2018-Apr-19 19:28N 39°34' E 002°38'0 0.0
2018-Apr-19 18:58N 39°34' E 002°38'0 0.0
2018-Apr-19 18:28N 39°34' E 002°38'0 0.0
2018-Apr-19 17:58N 39°34' E 002°38'0 0.0
2018-Apr-19 17:28N 39°34' E 002°38'0 0.0
2018-Apr-19 16:58N 39°34' E 002°38'0 0.0
2018-Apr-19 16:28N 39°34' E 002°38'0 0.0
2018-Apr-19 15:58N 39°34' E 002°38'0 0.0
2018-Apr-19 15:28N 39°34' E 002°38'0 0.0
2018-Apr-19 14:58N 39°34' E 002°38'0 0.0
2018-Apr-19 14:28N 39°34' E 002°38'0 0.0
2018-Apr-19 13:59N 39°34' E 002°38'0 0.0
2018-Apr-19 13:28N 39°34' E 002°38'0 0.0
2018-Apr-19 12:59N 39°34' E 002°38'0 0.0
2018-Apr-19 12:28N 39°34' E 002°38'0 0.0
2018-Apr-19 11:58N 39°34' E 002°38'0 0.0
2018-Apr-19 11:28N 39°34' E 002°38'0 0.0
2018-Apr-19 10:58N 39°34' E 002°38'0 0.0
2018-Apr-19 10:28N 39°34' E 002°38'0 0.0
2018-Apr-19 09:58N 39°34' E 002°38'0 0.0
2018-Apr-19 09:28N 39°34' E 002°38'0 0.0
2018-Apr-19 08:59N 39°34' E 002°38'0 0.0
2018-Apr-19 08:29N 39°34' E 002°38'0 0.0
2018-Apr-19 07:58N 39°34' E 002°38'0 0.0
2018-Apr-19 07:28N 39°34' E 002°38'0 0.0
2018-Apr-19 06:58N 39°34' E 002°38'0 0.0
2018-Apr-19 06:28N 39°34' E 002°38'0 0.0
2018-Apr-19 05:58N 39°34' E 002°38'0 0.0
2018-Apr-19 05:28N 39°34' E 002°38'0 0.0
2018-Apr-19 04:58N 39°34' E 002°38'0 0.0
2018-Apr-19 04:28N 39°34' E 002°38'0 0.0
2018-Apr-19 03:58N 39°34' E 002°38'0 0.0
2018-Apr-19 03:28N 39°34' E 002°38'0 0.0
2018-Apr-19 02:58N 39°34' E 002°38'0 0.0
2018-Apr-19 02:28N 39°34' E 002°38'0 0.0
2018-Apr-19 01:58N 39°34' E 002°38'0 0.0
2018-Apr-19 01:28N 39°34' E 002°38'0 0.0
2018-Apr-19 00:58N 39°34' E 002°38'0 0.0
2018-Apr-19 00:28N 39°34' E 002°38'0 0.0
2018-Apr-18 23:58N 39°34' E 002°38'0 0.0
2018-Apr-18 23:28N 39°34' E 002°38'0 0.0
2018-Apr-18 22:58N 39°34' E 002°38'0 0.0
2018-Apr-18 22:28N 39°34' E 002°38'0 0.0
2018-Apr-18 21:58N 39°34' E 002°38'0 0.0
2018-Apr-18 21:28N 39°34' E 002°38'0 0.0
2018-Apr-18 20:58N 39°34' E 002°38'0 0.0
2018-Apr-18 20:28N 39°34' E 002°38'0 0.0
2018-Apr-18 19:58N 39°34' E 002°38'0 0.0
2018-Apr-18 19:28N 39°34' E 002°38'0 0.0
2018-Apr-18 18:58N 39°34' E 002°38'0 0.0
2018-Apr-18 18:28N 39°34' E 002°38'0 0.0
2018-Apr-18 17:58N 39°34' E 002°38'0 0.0
2018-Apr-18 17:28N 39°34' E 002°38'0 0.0
2018-Apr-18 16:58N 39°34' E 002°38'0 0.0
2018-Apr-18 16:28N 39°34' E 002°38'0 0.0
2018-Apr-18 15:58N 39°34' E 002°38'0 0.0
2018-Apr-18 15:28N 39°34' E 002°38'0 0.0
2018-Apr-18 14:58N 39°34' E 002°38'0 0.0
2018-Apr-18 14:28N 39°34' E 002°38'0 0.0
2018-Apr-18 13:58N 39°34' E 002°38'0 0.0
2018-Apr-18 13:28N 39°34' E 002°38'0 0.0
2018-Apr-18 12:58N 39°34' E 002°38'0 0.0
2018-Apr-18 12:28N 39°34' E 002°38'0 0.0
2018-Apr-18 11:58N 39°34' E 002°38'0 0.0
2018-Apr-18 11:28N 39°34' E 002°38'0 0.0
2018-Apr-18 10:58N 39°34' E 002°38'0 0.0
2018-Apr-18 10:28N 39°34' E 002°38'0 0.0
2018-Apr-18 09:55N 39°34' E 002°38'0 0.0
2018-Apr-18 09:28N 39°34' E 002°38'0 0.0
2018-Apr-18 08:58N 39°34' E 002°38'0 0.0
2018-Apr-18 08:28N 39°34' E 002°38'0 0.0
2018-Apr-18 07:58N 39°34' E 002°38'0 0.0
2018-Apr-18 07:28N 39°34' E 002°38'0 0.0
2018-Apr-18 06:58N 39°34' E 002°38'0 0.0
2018-Apr-18 06:28N 39°34' E 002°38'0 0.0
2018-Apr-18 05:58N 39°34' E 002°38'0 0.0
2018-Apr-18 05:28N 39°34' E 002°38'0 0.0
2018-Apr-18 04:58N 39°34' E 002°38'0 0.0
2018-Apr-18 04:28N 39°34' E 002°38'0 0.0
2018-Apr-18 03:58N 39°34' E 002°38'0 0.0
2018-Apr-18 03:28N 39°34' E 002°38'0 0.0
2018-Apr-18 02:58N 39°34' E 002°38'0 0.0
2018-Apr-18 02:28N 39°34' E 002°38'0 0.0
2018-Apr-18 01:58N 39°34' E 002°38'0 0.0
2018-Apr-18 01:28N 39°34' E 002°38'0 0.0
2018-Apr-18 00:58N 39°34' E 002°38'0 0.0
2018-Apr-18 00:28N 39°34' E 002°38'0 0.0
2018-Apr-17 23:58N 39°34' E 002°38'0 0.0
2018-Apr-17 23:28N 39°34' E 002°38'0 0.0
2018-Apr-17 22:58N 39°34' E 002°38'0 0.0
2018-Apr-17 22:28N 39°34' E 002°38'0 0.0
2018-Apr-17 21:58N 39°34' E 002°38'0 0.0
2018-Apr-17 21:28N 39°34' E 002°38'0 0.0
2018-Apr-17 20:58N 39°34' E 002°38'0 0.0
2018-Apr-17 20:28N 39°34' E 002°38'0 0.0
2018-Apr-17 19:58N 39°34' E 002°38'0 0.0
2018-Apr-17 19:28N 39°34' E 002°38'0 0.0
2018-Apr-17 18:58N 39°34' E 002°38'0 0.0
2018-Apr-17 18:28N 39°34' E 002°38'0 0.0
2018-Apr-17 17:58N 39°34' E 002°38'0 0.0
2018-Apr-17 17:28N 39°34' E 002°38'0 0.0
2018-Apr-17 16:58N 39°34' E 002°38'0 0.0
2018-Apr-17 16:29N 39°34' E 002°38'0 0.0
2018-Apr-17 15:56N 39°34' E 002°38'0 0.0
2018-Apr-17 15:29N 39°34' E 002°38'0 0.0
2018-Apr-17 14:59N 39°34' E 002°38'0 0.0
2018-Apr-17 14:29N 39°34' E 002°38'0 0.0
2018-Apr-17 13:59N 39°34' E 002°38'0 0.0
2018-Apr-17 13:29N 39°34' E 002°38'0 0.0
2018-Apr-17 12:59N 39°34' E 002°38'0 0.4
2018-Apr-17 12:30N 39°34' E 002°38'  
Track history (hours):
 
Tides and Currents Weather Stations Pressure Air Temp Water Temp Dewpoint Dewpoint Depression Visibility Wind Speed Wind Dir Waves Ship Positions

Blues

Last reported at 2018-Apr-25 15:42 UTC. Time now 2018-Apr-25 20:20 UTC.
Position N 39°34' E 002°38'.

Type: Sailing vessel. MMSI: 319031700.

Date/timePositionNaut miles runAvg speedWind from/ knotsBaromVisibWave heightAir tempDewpointWater temp
2018-Apr-25 15:42N 39°34' E 002°38'0 0.1
2018-Apr-25 15:30N 39°34' E 002°38'0 0.0
2018-Apr-25 15:00N 39°34' E 002°38'0 0.0
2018-Apr-25 14:30N 39°34' E 002°38'0 0.0
2018-Apr-25 14:00N 39°34' E 002°38'0 0.0
2018-Apr-25 13:30N 39°34' E 002°38'0 0.0
2018-Apr-25 13:01N 39°34' E 002°38'0 0.0
2018-Apr-25 12:30N 39°34' E 002°38'0 0.0
2018-Apr-25 12:01N 39°34' E 002°38'0 0.0
2018-Apr-25 11:30N 39°34' E 002°38'0 0.0
2018-Apr-25 11:00N 39°34' E 002°38'0 0.3
2018-Apr-25 10:30N 39°34' E 002°38'1 1.0
2018-Apr-25 09:58N 39°34' E 002°38'0 0.0
2018-Apr-25 09:28N 39°34' E 002°38'0 0.0
2018-Apr-25 08:58N 39°34' E 002°38'0 0.0
2018-Apr-25 08:28N 39°34' E 002°38'0 0.0
2018-Apr-23 07:32N 39°34' E 002°38'0 0.1
2018-Apr-23 07:29N 39°34' E 002°38'0 0.0
2018-Apr-23 06:59N 39°34' E 002°38'0 0.0
2018-Apr-23 06:29N 39°34' E 002°38'2 4.4
2018-Apr-23 06:00N 39°32' E 002°39'5 9.6
2018-Apr-23 05:30N 39°27' E 002°41'4 8.2
2018-Apr-23 05:00N 39°24' E 002°44'2910.8
2018-Apr-23 02:19N 38°59' E 003°03'7 0.2
2018-Apr-21 12:33N 39°01' E 002°54'2 9.8
2018-Apr-21 12:21N 39°03' E 002°53'4 9.9
2018-Apr-21 12:00N 39°06' E 002°51'5 9.9
2018-Apr-21 11:30N 39°10' E 002°47'710.0
2018-Apr-21 10:48N 39°17' E 002°44'3 9.2
2018-Apr-21 10:30N 39°19' E 002°43'4 8.8
2018-Apr-21 10:00N 39°24' E 002°42'4 8.8
2018-Apr-21 09:30N 39°28' E 002°41'2 4.4
2018-Apr-21 08:58N 39°30' E 002°40'1 3.1
2018-Apr-21 08:30N 39°31' E 002°40'3 5.1
2018-Apr-21 07:58N 39°34' E 002°38'0 0.0
2018-Apr-21 07:28N 39°34' E 002°38'0 0.0
2018-Apr-21 06:58N 39°34' E 002°38'0 0.0
2018-Apr-21 06:28N 39°34' E 002°38'0 0.0
2018-Apr-21 05:58N 39°34' E 002°38'0 0.0
2018-Apr-21 05:28N 39°34' E 002°38'0 0.0
2018-Apr-21 04:58N 39°34' E 002°38'0 0.0
2018-Apr-21 04:28N 39°34' E 002°38'0 0.0
2018-Apr-21 03:58N 39°34' E 002°38'0 0.0
2018-Apr-21 03:28N 39°34' E 002°38'0 0.0
2018-Apr-21 02:58N 39°34' E 002°38'0 0.0
2018-Apr-21 02:28N 39°34' E 002°38'0 0.0
2018-Apr-21 01:58N 39°34' E 002°38'0 0.0
2018-Apr-21 01:29N 39°34' E 002°38'0 0.0
2018-Apr-21 00:58N 39°34' E 002°38'0 0.0
2018-Apr-21 00:29N 39°34' E 002°38'0 0.0
2018-Apr-20 23:59N 39°34' E 002°38'0 0.0
2018-Apr-20 23:28N 39°34' E 002°38'0 0.0
2018-Apr-20 22:58N 39°34' E 002°38'0 0.0
2018-Apr-20 22:28N 39°34' E 002°38'0 0.0
2018-Apr-20 21:58N 39°34' E 002°38'0 0.0
2018-Apr-20 21:28N 39°34' E 002°38'0 0.0
2018-Apr-20 20:58N 39°34' E 002°38'0 0.0
2018-Apr-20 20:28N 39°34' E 002°38'0 0.0
2018-Apr-20 19:58N 39°34' E 002°38'0 0.0
2018-Apr-20 19:28N 39°34' E 002°38'0 0.0
2018-Apr-20 18:58N 39°34' E 002°38'0 0.0
2018-Apr-20 18:28N 39°34' E 002°38'0 0.0
2018-Apr-20 17:58N 39°34' E 002°38'0 0.0
2018-Apr-20 17:28N 39°34' E 002°38'0 0.0
2018-Apr-20 16:58N 39°34' E 002°38'0 0.0
2018-Apr-20 16:28N 39°34' E 002°38'0 0.0
2018-Apr-20 15:58N 39°34' E 002°38'0 0.0
2018-Apr-20 15:28N 39°34' E 002°38'0 0.0
2018-Apr-20 14:58N 39°34' E 002°38'0 0.0
2018-Apr-20 14:28N 39°34' E 002°38'0 0.0
2018-Apr-20 13:58N 39°34' E 002°38'0 0.0
2018-Apr-20 13:28N 39°34' E 002°38'0 0.0
2018-Apr-20 12:59N 39°34' E 002°38'0 0.0
2018-Apr-20 12:28N 39°34' E 002°38'0 0.0
2018-Apr-20 11:58N 39°34' E 002°38'0 0.0
2018-Apr-20 11:28N 39°34' E 002°38'0 0.0
2018-Apr-20 10:58N 39°34' E 002°38'0 0.0
2018-Apr-20 10:28N 39°34' E 002°38'0 0.0
2018-Apr-20 09:58N 39°34' E 002°38'0 0.0
2018-Apr-20 09:29N 39°34' E 002°38'0 0.0
2018-Apr-20 08:58N 39°34' E 002°38'0 0.0
2018-Apr-20 08:28N 39°34' E 002°38'0 0.0
2018-Apr-20 07:58N 39°34' E 002°38'0 0.0
2018-Apr-20 07:29N 39°34' E 002°38'0 0.0
2018-Apr-20 06:58N 39°34' E 002°38'0 0.1
2018-Apr-20 06:28N 39°34' E 002°38'0 0.0
2018-Apr-20 05:58N 39°34' E 002°38'0 0.0
2018-Apr-20 05:28N 39°34' E 002°38'0 0.0
2018-Apr-20 04:58N 39°34' E 002°38'0 0.0
2018-Apr-20 04:28N 39°34' E 002°38'0 0.0
2018-Apr-20 03:58N 39°34' E 002°38'0 0.0
2018-Apr-20 03:28N 39°34' E 002°38'0 0.0
2018-Apr-20 02:58N 39°34' E 002°38'0 0.0
2018-Apr-20 02:28N 39°34' E 002°38'0 0.0
2018-Apr-20 01:58N 39°34' E 002°38'0 0.0
2018-Apr-20 01:29N 39°34' E 002°38'0 0.0
2018-Apr-20 00:58N 39°34' E 002°38'0 0.0
2018-Apr-20 00:28N 39°34' E 002°38'0 0.0
2018-Apr-19 23:46N 39°34' E 002°38'0 0.0
2018-Apr-19 23:29N 39°34' E 002°38'0 0.0
2018-Apr-19 22:58N 39°34' E 002°38'0 0.0
2018-Apr-19 22:28N 39°34' E 002°38'0 0.0
2018-Apr-19 21:58N 39°34' E 002°38'0 0.0
2018-Apr-19 21:28N 39°34' E 002°38'0 0.0
2018-Apr-19 20:58N 39°34' E 002°38'0 0.0
2018-Apr-19 20:28N 39°34' E 002°38'0 0.0
2018-Apr-19 19:58N 39°34' E 002°38'0 0.0
2018-Apr-19 19:28N 39°34' E 002°38'0 0.0
2018-Apr-19 18:58N 39°34' E 002°38'0 0.0
2018-Apr-19 18:28N 39°34' E 002°38'0 0.0
2018-Apr-19 17:58N 39°34' E 002°38'0 0.0
2018-Apr-19 17:28N 39°34' E 002°38'0 0.0
2018-Apr-19 16:58N 39°34' E 002°38'0 0.0
2018-Apr-19 16:28N 39°34' E 002°38'0 0.0
2018-Apr-19 15:58N 39°34' E 002°38'0 0.0
2018-Apr-19 15:28N 39°34' E 002°38'0 0.0
2018-Apr-19 14:58N 39°34' E 002°38'0 0.0
2018-Apr-19 14:28N 39°34' E 002°38'0 0.0
2018-Apr-19 13:59N 39°34' E 002°38'0 0.0
2018-Apr-19 13:28N 39°34' E 002°38'0 0.0
2018-Apr-19 12:59N 39°34' E 002°38'0 0.0
2018-Apr-19 12:28N 39°34' E 002°38'0 0.0
2018-Apr-19 11:58N 39°34' E 002°38'0 0.0
2018-Apr-19 11:28N 39°34' E 002°38'0 0.0
2018-Apr-19 10:58N 39°34' E 002°38'0 0.0
2018-Apr-19 10:28N 39°34' E 002°38'0 0.0
2018-Apr-19 09:58N 39°34' E 002°38'0 0.0
2018-Apr-19 09:28N 39°34' E 002°38'0 0.0
2018-Apr-19 08:59N 39°34' E 002°38'0 0.0
2018-Apr-19 08:29N 39°34' E 002°38'0 0.0
2018-Apr-19 07:58N 39°34' E 002°38'0 0.0
2018-Apr-19 07:28N 39°34' E 002°38'0 0.0
2018-Apr-19 06:58N 39°34' E 002°38'0 0.0
2018-Apr-19 06:28N 39°34' E 002°38'0 0.0
2018-Apr-19 05:58N 39°34' E 002°38'0 0.0
2018-Apr-19 05:28N 39°34' E 002°38'0 0.0
2018-Apr-19 04:58N 39°34' E 002°38'0 0.0
2018-Apr-19 04:28N 39°34' E 002°38'0 0.0
2018-Apr-19 03:58N 39°34' E 002°38'0 0.0
2018-Apr-19 03:28N 39°34' E 002°38'0 0.0
2018-Apr-19 02:58N 39°34' E 002°38'0 0.0
2018-Apr-19 02:28N 39°34' E 002°38'0 0.0
2018-Apr-19 01:58N 39°34' E 002°38'0 0.0
2018-Apr-19 01:28N 39°34' E 002°38'0 0.0
2018-Apr-19 00:58N 39°34' E 002°38'0 0.0
2018-Apr-19 00:28N 39°34' E 002°38'0 0.0
2018-Apr-18 23:58N 39°34' E 002°38'0 0.0
2018-Apr-18 23:28N 39°34' E 002°38'0 0.0
2018-Apr-18 22:58N 39°34' E 002°38'0 0.0
2018-Apr-18 22:28N 39°34' E 002°38'0 0.0
2018-Apr-18 21:58N 39°34' E 002°38'0 0.0
2018-Apr-18 21:28N 39°34' E 002°38'0 0.0
2018-Apr-18 20:58N 39°34' E 002°38'0 0.0
2018-Apr-18 20:28N 39°34' E 002°38'0 0.0
2018-Apr-18 19:58N 39°34' E 002°38'0 0.0
2018-Apr-18 19:28N 39°34' E 002°38'0 0.0
2018-Apr-18 18:58N 39°34' E 002°38'0 0.0
2018-Apr-18 18:28N 39°34' E 002°38'0 0.0
2018-Apr-18 17:58N 39°34' E 002°38'0 0.0
2018-Apr-18 17:28N 39°34' E 002°38'0 0.0
2018-Apr-18 16:58N 39°34' E 002°38'0 0.0
2018-Apr-18 16:28N 39°34' E 002°38'0 0.0
2018-Apr-18 15:58N 39°34' E 002°38'0 0.0
2018-Apr-18 15:28N 39°34' E 002°38'0 0.0
2018-Apr-18 14:58N 39°34' E 002°38'0 0.0
2018-Apr-18 14:28N 39°34' E 002°38'0 0.0
2018-Apr-18 13:58N 39°34' E 002°38'0 0.0
2018-Apr-18 13:28N 39°34' E 002°38'0 0.0
2018-Apr-18 12:58N 39°34' E 002°38'0 0.0
2018-Apr-18 12:28N 39°34' E 002°38'0 0.0
2018-Apr-18 11:58N 39°34' E 002°38'0 0.0
2018-Apr-18 11:28N 39°34' E 002°38'0 0.0
2018-Apr-18 10:58N 39°34' E 002°38'0 0.0
2018-Apr-18 10:28N 39°34' E 002°38'0 0.0
2018-Apr-18 09:55N 39°34' E 002°38'0 0.0
2018-Apr-18 09:28N 39°34' E 002°38'0 0.0
2018-Apr-18 08:58N 39°34' E 002°38'0 0.0
2018-Apr-18 08:28N 39°34' E 002°38'0 0.0
2018-Apr-18 07:58N 39°34' E 002°38'0 0.0
2018-Apr-18 07:28N 39°34' E 002°38'0 0.0
2018-Apr-18 06:58N 39°34' E 002°38'0 0.0
2018-Apr-18 06:28N 39°34' E 002°38'0 0.0
2018-Apr-18 05:58N 39°34' E 002°38'0 0.0
2018-Apr-18 05:28N 39°34' E 002°38'0 0.0
2018-Apr-18 04:58N 39°34' E 002°38'0 0.0
2018-Apr-18 04:28N 39°34' E 002°38'0 0.0
2018-Apr-18 03:58N 39°34' E 002°38'0 0.0
2018-Apr-18 03:28N 39°34' E 002°38'0 0.0
2018-Apr-18 02:58N 39°34' E 002°38'0 0.0
2018-Apr-18 02:28N 39°34' E 002°38'0 0.0
2018-Apr-18 01:58N 39°34' E 002°38'0 0.0
2018-Apr-18 01:28N 39°34' E 002°38'0 0.0
2018-Apr-18 00:58N 39°34' E 002°38'0 0.0
2018-Apr-18 00:28N 39°34' E 002°38'0 0.0
2018-Apr-17 23:58N 39°34' E 002°38'0 0.0
2018-Apr-17 23:28N 39°34' E 002°38'0 0.0
2018-Apr-17 22:58N 39°34' E 002°38'0 0.0
2018-Apr-17 22:28N 39°34' E 002°38'0 0.0
2018-Apr-17 21:58N 39°34' E 002°38'0 0.0
2018-Apr-17 21:28N 39°34' E 002°38'0 0.0
2018-Apr-17 20:58N 39°34' E 002°38'0 0.0
2018-Apr-17 20:28N 39°34' E 002°38'0 0.0
2018-Apr-17 19:58N 39°34' E 002°38'0 0.0
2018-Apr-17 19:28N 39°34' E 002°38'0 0.0
2018-Apr-17 18:58N 39°34' E 002°38'0 0.0
2018-Apr-17 18:28N 39°34' E 002°38'0 0.0
2018-Apr-17 17:58N 39°34' E 002°38'0 0.0
2018-Apr-17 17:28N 39°34' E 002°38'0 0.0
2018-Apr-17 16:58N 39°34' E 002°38'0 0.0
2018-Apr-17 16:29N 39°34' E 002°38'0 0.0
2018-Apr-17 15:56N 39°34' E 002°38'0 0.0
2018-Apr-17 15:29N 39°34' E 002°38'0 0.0
2018-Apr-17 14:59N 39°34' E 002°38'0 0.0
2018-Apr-17 14:29N 39°34' E 002°38'0 0.0
2018-Apr-17 13:59N 39°34' E 002°38'0 0.0
2018-Apr-17 13:29N 39°34' E 002°38'0 0.0
2018-Apr-17 12:59N 39°34' E 002°38'0 0.4
2018-Apr-17 12:30N 39°34' E 002°38'  

Dump ship's entire track history